Warning: A non-numeric value encountered in /home/portan24/public_html/weather28/metar/wsMetarTxt.php on line 608

Northport NY Webcam more information Northport NY Webcam


Visit our other weather sites:

Template documentation
and downloads

And another site



Nearby METAR Reports


Warning: A non-numeric value encountered in /home/portan24/public_html/weather28/metar/wsMetarTxt.php on line 608
   
EBBR - Brussels International Airport, Belgium
Distance from station: W 9 mi
Updated: Oct 21 2018 2:50 am
Mist, Shallow Fog, Partly Cloudy  
Mist, Shallow Fog, Partly Cloudy  
   Wind: SSE 1.2 mph
Wind: SSE 1.2 mph
Temperature: 42.8°F
Dew Point: 41°F
Humidity: 93%
Barometer: 30.39 inHg
Clouds: Partly Cloudy
Visibility: 3 mi
Cloud details: Partly Cloudy m
EBBR 210650Z 15001KT 4200 BR MIFG NSC 06/05 Q1029 BECMG 6000 NSW
EBBE - Beauvechain (Bevekom), Belgium
Distance from station: SSE 10 mi
Updated: Oct 21 2018 2:51 am
Clear  
Clear  
   Wind: varies 1.2 mph
Wind: varies 1.2 mph
Temperature: 44.6°F
Dew Point: 41°F
Humidity: 87%
Barometer: 30.39 inHg
Clouds: Clear
Visibility: 3 mi
Cloud details: Clear m
EBBE 210651Z AUTO VRB01KT 5000 NCD 07/05 Q1029 WHT
EBDT - Schaffen, Belgium
Distance from station: ENE 18 mi
Updated: Oct 21 2018 2:25 am
Mist, Clear  
Mist, Clear  
   Wind: varies 2.3 mph
Wind: varies 2.3 mph
Temperature: 37.4°F
Dew Point: 37.4°F
Humidity: 100%
Barometer: 30.39 inHg
Clouds: Clear
Visibility: 1 mi
Cloud details: Clear m
EBDT 210625Z AUTO VRB02KT 1400 BR NCD 03/03 Q1029 AMB
EBAW - Antwerp/Deurne, Belgium
Distance from station: NNW 23 mi
Updated: Oct 21 2018 2:50 am
Mist, Mostly Cloudy  
Mist, Mostly Cloudy  
   Wind: SE 2.3 mph
Wind: SE 2.3 mph
Temperature: 44.6°F
Dew Point: 39.2°F
Humidity: 81%
Barometer: 30.39 inHg
Clouds: Mostly Cloudy
Visibility: 3 mi
Cloud details: Mostly Cloudy 1463 m
EBAW 210650Z 14002KT 5000 BR BKN048 07/04 Q1029 BECMG 6000 NSW
EBCI - Charleroi/Gosselies, Belgium
Distance from station: SSW 32 mi
Updated: Oct 21 2018 2:50 am
Mist, Partly Cloudy  
Mist, Partly Cloudy  
   Wind: SE 5.8 mph
Wind: SE 5.8 mph
Temperature: 41°F
Wind Chill: 37.4°F
Dew Point: 39.2°F
Humidity: 93%
Barometer: 30.39 inHg
Clouds: Partly Cloudy
Visibility: 2 mi
Cloud details: Partly Cloudy m
EBCI 210650Z 14005KT 120V190 2700 BR NSC 05/04 Q1029 BECMG 6000 NSW
EBLG - Bierset/Liege, Belgium
Distance from station: ESE 38 mi
Updated: Oct 21 2018 2:50 am
Mist, Partly Cloudy  
Mist, Partly Cloudy  
   Wind: SSE 5.8 mph
Wind: SSE 5.8 mph
Temperature: 41°F
Wind Chill: 37.4°F
Dew Point: 39.2°F
Humidity: 93%
Barometer: 30.39 inHg
Clouds: Partly Cloudy
Visibility: 2 mi
Cloud details: Partly Cloudy m
EBLG 210650Z 15005KT 3300 BR NSC 05/04 Q1029 TEMPO 3000 BR

Script developed by  Saratoga-weather.org Adapted for the template by  Weerstation Leuven

You find our weather info also at:

Weather Underground

AWEKAS

Citizen Weather Observer Program (CWOP)

Equipment we use:

Weather-station
Davis VP2

Davis VP2